Time;durP1;ratioP1;P1;durP2;ratioP2;P2;SDS_P1;SDS_P2;PMS_P1;PMS_P2;Temp;Humidity;BMP_temperature;BMP_pressure;BME280_temperature;BME280_humidity;BME280_pressure;Samples;Min_cycle;Max_cycle;Signal;HPM_P1;HPM_P2
2022/04/25 00:04:47;;;;;;;5.50;3.50;;;23.50;54.00;;;;;;220511;1265;22569;-58
2022/04/25 00:09:51;;;;;;;6.10;3.70;;;23.40;53.90;;;;;;220708;1268;25122;-58
2022/04/25 00:14:55;;;;;;;6.20;4.30;;;23.50;54.00;;;;;;220801;1268;24246;-58
2022/04/25 00:19:58;;;;;;;6.40;3.80;;;23.40;54.20;;;;;;220349;1267;22616;-57
2022/04/25 00:25:03;;;;;;;6.00;3.50;;;23.40;54.30;;;;;;220895;1267;22765;-58
2022/04/25 00:30:07;;;;;;;5.40;3.50;;;23.40;54.30;;;;;;220686;1268;24707;-57
2022/04/25 00:35:11;;;;;;;5.40;3.90;;;23.50;53.90;;;;;;220545;1267;25315;-56
2022/04/25 00:40:17;;;;;;;4.90;3.70;;;23.50;53.50;;;;;;220621;1268;25330;-56
2022/04/25 00:45:21;;;;;;;4.80;3.40;;;23.40;54.30;;;;;;220835;1268;22787;-57
2022/04/25 00:50:25;;;;;;;6.60;3.80;;;23.50;53.90;;;;;;220816;1268;25507;-58
2022/04/25 00:55:29;;;;;;;6.10;3.60;;;23.50;54.10;;;;;;220365;1267;25316;-57
2022/04/25 01:00:36;;;;;;;5.20;3.60;;;23.50;54.00;;;;;;220944;1268;22547;-58
2022/04/25 01:05:40;;;;;;;6.00;3.70;;;23.50;54.40;;;;;;220868;1268;22581;-58
2022/04/25 01:10:45;;;;;;;5.70;3.60;;;23.50;53.90;;;;;;220446;1268;22554;-58
2022/04/25 01:15:51;;;;;;;5.70;3.50;;;23.50;54.20;;;;;;220726;1268;25345;-57
2022/04/25 01:21:00;;;;;;;5.70;3.60;;;23.50;54.80;;;;;;220329;1267;22541;-59
2022/04/25 01:31:31;;;;;;;5.30;3.50;;;23.50;53.80;;;;;;220371;1267;24520;-57
2022/04/25 01:36:36;;;;;;;9.80;3.00;;;23.50;53.70;;;;;;220587;1268;22858;-58
2022/04/25 01:41:42;;;;;;;5.90;3.30;;;23.50;54.50;;;;;;220672;1267;22537;-57
2022/04/25 01:46:47;;;;;;;5.70;3.30;;;23.40;55.30;;;;;;220384;1266;22549;-58
2022/04/25 01:52:27;;;;;;;7.10;3.10;;;23.50;55.50;;;;;;220345;1268;24238;-56
2022/04/25 01:57:33;;;;;;;7.70;3.20;;;23.40;55.60;;;;;;221079;1267;22551;-49
2022/04/25 02:02:37;;;;;;;12.50;3.50;;;23.30;56.20;;;;;;220229;1268;24853;-48
2022/04/25 02:07:41;;;;;;;12.30;3.90;;;23.30;56.40;;;;;;220561;1267;24020;-56
2022/04/25 02:12:45;;;;;;;7.60;3.30;;;23.20;56.50;;;;;;220724;1267;26480;-58
2022/04/25 02:17:48;;;;;;;10.30;3.50;;;23.20;56.90;;;;;;220319;1267;22612;-59
2022/04/25 02:22:52;;;;;;;9.50;4.20;;;23.10;56.80;;;;;;220474;1267;22563;-59
2022/04/25 02:27:56;;;;;;;12.00;3.90;;;23.10;56.20;;;;;;220628;1268;24372;-58
2022/04/25 02:32:59;;;;;;;9.70;3.80;;;23.10;55.90;;;;;;219963;1267;23908;-58
2022/04/25 02:38:03;;;;;;;7.00;4.10;;;23.00;56.10;;;;;;220245;1267;22615;-59
2022/04/25 02:43:07;;;;;;;7.60;3.60;;;23.00;55.70;;;;;;220296;1267;22692;-58
2022/04/25 02:48:10;;;;;;;7.70;4.00;;;23.00;55.60;;;;;;220345;1267;22572;-59
2022/04/25 02:53:14;;;;;;;11.00;3.60;;;22.90;55.60;;;;;;220429;1267;25219;-60
2022/04/25 02:58:20;;;;;;;7.60;3.40;;;22.90;55.50;;;;;;220707;1268;22678;-59
2022/04/25 03:03:26;;;;;;;9.00;4.10;;;22.90;55.50;;;;;;220415;1270;22592;-60
2022/04/25 03:08:30;;;;;;;9.50;3.90;;;22.90;55.50;;;;;;220208;1267;22692;-61
2022/04/25 03:13:35;;;;;;;9.30;3.90;;;22.80;55.30;;;;;;220430;1267;22528;-58
2022/04/25 03:18:39;;;;;;;5.90;3.60;;;22.80;55.30;;;;;;220422;1267;25240;-61
2022/04/25 03:23:43;;;;;;;6.90;4.20;;;22.70;55.20;;;;;;220351;1268;22673;-60
2022/04/25 03:28:47;;;;;;;9.50;3.60;;;22.80;55.30;;;;;;220618;1268;22564;-59
2022/04/25 03:33:51;;;;;;;7.30;3.50;;;22.70;55.20;;;;;;220812;1268;22560;-60
2022/04/25 03:38:54;;;;;;;10.10;3.20;;;22.70;55.20;;;;;;220440;1267;24199;-62
2022/04/25 03:43:58;;;;;;;6.20;3.80;;;22.70;55.40;;;;;;220637;1267;22654;-60
2022/04/25 03:49:02;;;;;;;6.10;3.10;;;22.60;55.10;;;;;;220668;1267;24266;-60
2022/04/25 03:54:06;;;;;;;6.80;3.40;;;22.60;54.90;;;;;;220365;1267;22555;-59
2022/04/25 03:59:10;;;;;;;8.10;3.30;;;22.60;54.90;;;;;;220685;1267;22535;-59
2022/04/25 04:04:13;;;;;;;6.80;3.30;;;22.50;54.90;;;;;;220299;1268;22833;-61
2022/04/25 04:14:40;;;;;;;4.90;3.50;;;22.50;55.50;;;;;;220016;1268;22620;-60
2022/04/25 04:19:46;;;;;;;4.30;3.10;;;22.50;55.00;;;;;;220814;1267;24279;-62
2022/04/25 04:24:51;;;;;;;4.80;2.80;;;22.40;54.70;;;;;;220021;1268;394504;-62
2022/04/25 04:29:55;;;;;;;6.20;3.30;;;22.40;54.60;;;;;;220859;1268;26474;-59
2022/04/25 04:35:00;;;;;;;5.30;3.00;;;22.40;55.00;;;;;;220016;1268;22548;-59
2022/04/25 04:45:29;;;;;;;6.10;3.10;;;22.30;54.60;;;;;;220646;1268;22561;-60
2022/04/25 04:50:33;;;;;;;5.40;2.90;;;22.30;54.50;;;;;;220643;1268;22811;-62
2022/04/25 04:55:37;;;;;;;4.00;2.90;;;22.30;54.50;;;;;;220704;1268;22576;-58
2022/04/25 05:00:44;;;;;;;4.80;3.30;;;22.30;54.50;;;;;;220651;1268;24445;-60
2022/04/25 05:05:48;;;;;;;5.50;2.70;;;22.20;54.40;;;;;;220417;1268;24488;-60
2022/04/25 05:10:54;;;;;;;4.40;2.90;;;22.20;54.50;;;;;;220301;1268;22568;-63
2022/04/25 05:15:58;;;;;;;4.10;2.90;;;22.20;54.40;;;;;;220407;1267;24070;-60
2022/04/25 05:21:03;;;;;;;4.60;2.40;;;22.20;54.70;;;;;;220350;1267;22615;-59
2022/04/25 05:26:08;;;;;;;3.60;2.50;;;22.20;54.40;;;;;;220419;1267;22545;-58
2022/04/25 05:31:11;;;;;;;4.50;2.60;;;22.20;54.30;;;;;;220515;1267;22525;-59
2022/04/25 05:36:15;;;;;;;8.60;3.10;;;22.10;54.20;;;;;;220602;1267;22536;-61
2022/04/25 05:41:19;;;;;;;4.60;2.80;;;22.10;54.20;;;;;;220677;1267;22722;-60
2022/04/25 05:46:24;;;;;;;4.40;2.60;;;22.10;54.20;;;;;;220550;1267;22558;-59
2022/04/25 05:56:50;;;;;;;3.80;2.50;;;22.00;54.10;;;;;;221097;1267;24251;-59
2022/04/25 06:01:54;;;;;;;5.30;2.90;;;22.00;54.10;;;;;;220624;1267;24415;-58
2022/04/25 06:06:59;;;;;;;5.00;2.50;;;21.90;54.00;;;;;;220816;1268;22652;-59
2022/04/25 06:12:04;;;;;;;4.50;2.70;;;21.90;54.00;;;;;;220896;1267;22544;-59
2022/04/25 06:17:07;;;;;;;3.50;2.40;;;22.00;54.10;;;;;;220698;1267;22622;-59
2022/04/25 06:22:11;;;;;;;5.40;2.70;;;22.00;54.30;;;;;;220651;1267;24382;-60
2022/04/25 06:27:15;;;;;;;4.90;2.20;;;21.90;54.20;;;;;;220919;1268;22532;-59
2022/04/25 06:32:19;;;;;;;4.10;2.50;;;21.90;53.90;;;;;;220093;1268;23944;-61
2022/04/25 06:37:23;;;;;;;3.40;2.60;;;21.90;54.20;;;;;;220379;1267;25363;-59
2022/04/25 06:42:27;;;;;;;4.70;2.30;;;21.90;54.00;;;;;;220379;1267;22551;-58
2022/04/25 06:47:31;;;;;;;4.40;2.80;;;21.90;53.90;;;;;;221022;1267;22568;-61
2022/04/25 06:52:35;;;;;;;4.30;2.70;;;21.80;53.70;;;;;;220883;1267;25498;-62
2022/04/25 06:57:40;;;;;;;2.90;2.20;;;21.80;53.70;;;;;;220997;1267;25391;-62
2022/04/25 07:02:47;;;;;;;4.50;2.40;;;21.80;53.60;;;;;;220620;1267;24428;-59
2022/04/25 07:07:51;;;;;;;5.00;2.40;;;21.80;53.60;;;;;;220701;1267;25471;-62
2022/04/25 07:12:56;;;;;;;3.60;2.20;;;21.80;53.90;;;;;;220269;1269;24266;-60
2022/04/25 07:18:00;;;;;;;3.60;2.30;;;21.80;53.80;;;;;;220737;1267;25401;-58
2022/04/25 07:33:56;;;;;;;4.10;2.20;;;21.70;53.50;;;;;;220306;1267;24265;-62
2022/04/25 07:39:00;;;;;;;3.00;2.10;;;21.70;53.50;;;;;;221028;1267;22538;-62
2022/04/25 07:44:05;;;;;;;4.10;2.10;;;21.60;53.40;;;;;;220449;1267;25239;-59
2022/04/25 07:49:10;;;;;;;3.50;2.40;;;21.70;53.40;;;;;;220659;1267;24355;-60
2022/04/25 07:54:15;;;;;;;3.40;2.00;;;21.60;53.30;;;;;;220443;1267;24187;-59
2022/04/25 07:59:19;;;;;;;3.10;2.10;;;21.60;53.40;;;;;;220588;1267;22547;-61
2022/04/25 08:04:23;;;;;;;5.40;2.20;;;21.60;53.30;;;;;;220505;1267;22608;-60
2022/04/25 08:09:27;;;;;;;2.90;2.10;;;21.60;53.30;;;;;;220253;1267;23939;-59
2022/04/25 08:19:54;;;;;;;3.00;2.00;;;21.60;53.30;;;;;;220457;1267;22602;-60
2022/04/25 08:25:04;;;;;;;3.50;2.10;;;21.60;53.40;;;;;;220482;1267;22544;-59
2022/04/25 08:30:08;;;;;;;4.00;1.90;;;21.60;53.30;;;;;;220663;1267;23090;-58
2022/04/25 08:35:14;;;;;;;3.40;1.90;;;21.60;53.20;;;;;;220751;1267;22607;-59
2022/04/25 08:40:18;;;;;;;3.30;2.40;;;21.50;53.20;;;;;;220529;1267;24288;-59
2022/04/25 08:45:28;;;;;;;3.10;2.30;;;21.50;53.10;;;;;;220794;1267;22536;-60
2022/04/25 08:50:32;;;;;;;3.00;1.80;;;21.50;53.10;;;;;;220506;1267;24189;-60
2022/04/25 08:55:36;;;;;;;3.00;1.90;;;21.50;53.10;;;;;;220640;1267;24364;-59
2022/04/25 09:00:40;;;;;;;3.50;2.20;;;21.40;53.10;;;;;;221121;1268;25621;-61
2022/04/25 09:05:47;;;;;;;3.30;2.10;;;21.50;53.10;;;;;;220329;1267;22533;-59
2022/04/25 09:12:09;;;;;;;3.50;2.00;;;21.50;53.00;;;;;;221065;1267;24420;-71
2022/04/25 09:16:16;;;;;;;2.90;1.90;;;21.50;53.10;;;;;;220594;1267;26538;-59
2022/04/25 09:21:21;;;;;;;3.10;1.90;;;21.40;53.30;;;;;;220805;1267;24293;-63
2022/04/25 09:26:29;;;;;;;3.20;2.10;;;21.40;53.00;;;;;;220840;1267;22540;-58
2022/04/25 09:31:35;;;;;;;3.00;1.80;;;21.40;52.90;;;;;;220756;1267;22698;-59
2022/04/25 09:36:55;;;;;;;3.30;2.20;;;21.40;53.00;;;;;;220858;1267;22881;-59
2022/04/25 09:42:00;;;;;;;3.30;1.90;;;21.40;52.90;;;;;;220927;1268;24415;-59
2022/04/25 09:47:12;;;;;;;3.10;2.00;;;21.40;52.90;;;;;;220654;1267;25297;-59
2022/04/25 09:52:20;;;;;;;2.60;1.80;;;21.40;53.30;;;;;;220904;1267;24422;-60
2022/04/25 09:57:32;;;;;;;3.00;2.00;;;21.30;53.00;;;;;;220933;1268;22569;-60
2022/04/25 10:02:40;;;;;;;2.70;1.80;;;21.30;52.80;;;;;;220686;1267;22653;-60
2022/04/25 10:07:48;;;;;;;2.60;1.90;;;21.30;52.90;;;;;;220742;1268;25339;-59
2022/04/25 10:12:55;;;;;;;2.80;1.60;;;21.30;53.20;;;;;;220551;1268;24410;-59
2022/04/25 10:18:04;;;;;;;3.10;1.90;;;21.30;52.90;;;;;;220775;1267;25527;-58
2022/04/25 10:23:14;;;;;;;3.30;1.90;;;21.20;52.80;;;;;;220657;1267;24406;-59
2022/04/25 10:28:31;;;;;;;2.80;1.80;;;21.20;52.90;;;;;;220744;1267;24367;-58
2022/04/25 10:33:49;;;;;;;2.90;1.80;;;21.20;52.70;;;;;;220634;1267;24525;-60
2022/04/25 10:39:13;;;;;;;3.60;2.00;;;21.20;52.70;;;;;;220580;1267;22560;-59
2022/04/25 10:44:20;;;;;;;;;;;21.20;52.70;;;;;;220738;1267;24196;-58
2022/04/25 10:49:31;;;;;;;3.00;1.80;;;21.20;52.70;;;;;;220725;1267;24449;-60
2022/04/25 10:54:49;;;;;;;2.50;1.60;;;21.20;52.80;;;;;;220729;1267;22597;-60
2022/04/25 10:59:54;;;;;;;2.40;1.40;;;21.20;52.80;;;;;;220830;1267;22591;-62
2022/04/25 11:05:11;;;;;;;2.70;1.80;;;21.20;53.10;;;;;;220669;1267;24305;-59
2022/04/25 11:10:41;;;;;;;3.00;1.90;;;21.10;52.70;;;;;;220821;1267;22609;-58
2022/04/25 11:15:47;;;;;;;3.30;2.00;;;21.10;52.60;;;;;;220974;1267;22547;-59
2022/04/25 11:20:58;;;;;;;2.90;2.00;;;21.10;52.60;;;;;;220361;1267;25477;-60
2022/04/25 11:26:05;;;;;;;;;;;21.10;52.60;;;;;;220572;1267;22530;-62
2022/04/25 11:31:16;;;;;;;2.50;1.80;;;21.10;52.60;;;;;;220857;1267;23080;-59
2022/04/25 11:36:22;;;;;;;3.20;2.00;;;21.10;52.60;;;;;;220696;1267;24252;-60
2022/04/25 11:41:26;;;;;;;2.90;1.80;;;21.10;52.60;;;;;;220767;1267;25358;-61
2022/04/25 11:46:37;;;;;;;2.80;1.80;;;21.10;53.00;;;;;;220755;1267;25378;-58
2022/04/25 11:51:44;;;;;;;2.60;1.90;;;21.10;53.00;;;;;;220403;1266;24215;-60
2022/04/25 11:56:48;;;;;;;3.30;1.90;;;21.10;52.60;;;;;;220815;1267;22553;-60
2022/04/25 12:01:52;;;;;;;2.70;1.80;;;21.10;52.50;;;;;;220970;1267;25375;-60
2022/04/25 12:07:07;;;;;;;2.50;1.60;;;21.10;52.80;;;;;;220909;1267;22798;-58
2022/04/25 12:17:46;;;;;;;2.60;1.70;;;21.00;52.40;;;;;;220965;1267;22716;-59
2022/04/25 12:22:59;;;;;;;2.60;1.70;;;21.00;52.50;;;;;;220529;1267;24269;-57
2022/04/25 12:28:09;;;;;;;2.70;1.90;;;21.00;52.40;;;;;;220783;1267;22772;-60
2022/04/25 12:33:15;;;;;;;2.30;1.70;;;21.00;52.50;;;;;;220199;1270;24120;-58
2022/04/25 12:38:41;;;;;;;3.00;1.90;;;21.00;52.70;;;;;;220451;1267;22544;-59
2022/04/25 12:43:48;;;;;;;3.10;1.90;;;21.00;52.40;;;;;;220501;1267;24505;-59
2022/04/25 12:49:22;;;;;;;3.10;1.80;;;21.00;52.90;;;;;;220430;1267;22969;-59
2022/04/25 12:54:32;;;;;;;2.40;1.90;;;21.00;52.40;;;;;;220417;1267;24168;-59
2022/04/25 12:59:47;;;;;;;2.90;2.10;;;20.90;52.30;;;;;;220443;1267;23609;-59
2022/04/25 13:05:06;;;;;;;2.80;2.00;;;20.90;52.40;;;;;;220440;1267;25114;-57
2022/04/25 13:10:21;;;;;;;2.70;1.80;;;20.90;52.30;;;;;;220425;1267;22610;-58
2022/04/25 13:15:36;;;;;;;2.80;1.70;;;20.90;52.30;;;;;;220221;1271;23062;-60
2022/04/25 13:20:57;;;;;;;;;;;;;;;;;;;;;
2022/04/25 13:26:07;;;;;;;3.10;1.90;;;20.90;52.30;;;;;;220184;1267;24396;-58
2022/04/25 13:31:30;;;;;;;3.00;1.90;;;20.90;52.30;;;;;;220459;1267;24352;-61
2022/04/25 13:36:40;;;;;;;2.80;1.70;;;20.90;52.30;;;;;;220420;1267;22560;-61
2022/04/25 13:41:44;;;;;;;3.10;1.90;;;20.90;52.30;;;;;;220494;1267;22704;-64
2022/04/25 13:46:53;;;;;;;3.20;1.90;;;20.90;52.40;;;;;;220481;1267;24161;-57
2022/04/25 13:51:57;;;;;;;2.80;1.90;;;20.90;52.30;;;;;;220533;1267;24076;-58
2022/04/25 13:57:10;;;;;;;2.60;1.80;;;20.80;52.50;;;;;;220320;1268;24226;-58
2022/04/25 14:07:49;;;;;;;3.20;2.00;;;20.80;52.30;;;;;;220315;1267;26219;-58
2022/04/25 14:12:58;;;;;;;2.90;1.80;;;20.80;52.50;;;;;;220415;1267;25362;-58
2022/04/25 14:18:07;;;;;;;3.10;1.70;;;20.80;52.50;;;;;;220501;1268;22690;-59
2022/04/25 14:23:13;;;;;;;4.50;1.90;;;20.80;52.20;;;;;;220510;1267;22562;-59
2022/04/25 14:28:17;;;;;;;2.20;1.50;;;20.80;52.10;;;;;;220745;1267;22557;-59
2022/04/25 14:33:24;;;;;;;2.70;1.70;;;20.80;52.20;;;;;;220862;1267;25323;-60
2022/04/25 14:38:28;;;;;;;3.20;1.90;;;20.80;52.70;;;;;;220782;1268;22610;-59
2022/04/25 14:43:38;;;;;;;2.90;1.70;;;20.80;52.10;;;;;;220877;1267;25393;-59
2022/04/25 14:48:41;;;;;;;3.30;1.90;;;20.70;51.70;;;;;;220777;1267;22934;-57
2022/04/25 14:59:14;;;;;;;3.10;2.00;;;20.70;52.40;;;;;;220929;1268;25471;-59
2022/04/25 15:04:20;;;;;;;2.90;2.00;;;20.70;51.70;;;;;;220801;1267;24224;-59
2022/04/25 15:09:31;;;;;;;2.20;1.50;;;20.70;52.40;;;;;;220984;1269;24367;-59
2022/04/25 15:14:43;;;;;;;3.30;1.90;;;20.70;52.10;;;;;;220714;1268;22793;-59
2022/04/25 15:19:52;;;;;;;2.90;1.90;;;20.70;52.20;;;;;;220687;1270;22556;-59
2022/04/25 15:25:13;;;;;;;3.20;2.10;;;20.70;52.10;;;;;;220970;1270;22632;-59
2022/04/25 15:30:20;;;;;;;3.20;1.70;;;20.60;52.10;;;;;;220549;1267;24246;-57
2022/04/25 15:35:35;;;;;;;2.40;1.60;;;20.60;51.50;;;;;;220805;1267;22541;-60
2022/04/25 15:40:50;;;;;;;6.00;1.90;;;20.70;52.10;;;;;;220665;1268;24408;-60
2022/04/25 15:46:02;;;;;;;2.50;1.60;;;20.60;52.00;;;;;;220700;1268;23914;-57
2022/04/25 15:51:06;;;;;;;2.90;1.60;;;20.60;52.40;;;;;;220539;1268;22655;-58
2022/04/25 16:01:38;;;;;;;2.60;1.90;;;20.60;52.10;;;;;;220530;1270;22544;-58
2022/04/25 16:06:42;;;;;;;2.90;1.80;;;20.60;52.10;;;;;;220638;1269;25411;-59
2022/04/25 16:11:53;;;;;;;2.80;1.90;;;20.60;52.20;;;;;;220330;1268;22545;-60
2022/04/25 16:16:57;;;;;;;2.50;1.70;;;20.60;52.00;;;;;;220633;1268;22698;-58
2022/04/25 16:22:02;;;;;;;3.60;2.00;;;20.60;52.10;;;;;;220361;1270;431588;-60
2022/04/25 16:27:08;;;;;;;3.20;1.80;;;20.60;52.10;;;;;;220555;1268;22529;-60
2022/04/25 16:32:19;;;;;;;3.00;1.90;;;20.50;52.00;;;;;;220627;1268;24337;-61
2022/04/25 16:37:23;;;;;;;2.80;2.00;;;20.50;52.00;;;;;;220572;1270;24354;-61
2022/04/25 16:42:30;;;;;;;2.50;1.50;;;20.50;52.00;;;;;;220243;1268;22724;-58
2022/04/25 16:47:34;;;;;;;3.60;1.90;;;20.50;52.00;;;;;;220696;1268;22529;-60
2022/04/25 16:52:38;;;;;;;2.90;1.80;;;20.50;52.00;;;;;;221015;1270;22567;-59
2022/04/25 16:57:45;;;;;;;2.80;1.70;;;20.50;52.00;;;;;;220569;1268;25251;-59
2022/04/25 17:02:51;;;;;;;3.00;2.00;;;20.50;52.00;;;;;;220405;1269;22548;-60
2022/04/25 17:07:55;;;;;;;2.90;2.00;;;20.50;52.00;;;;;;220530;1268;22717;-60
2022/04/25 17:12:59;;;;;;;3.10;1.80;;;20.50;52.10;;;;;;220461;1269;24345;-59
2022/04/25 17:18:06;;;;;;;2.60;1.70;;;20.40;52.00;;;;;;220801;1268;24305;-59
2022/04/25 17:23:11;;;;;;;2.70;1.90;;;20.40;52.00;;;;;;220869;1270;22542;-58
2022/04/25 17:28:16;;;;;;;2.30;1.60;;;20.40;52.00;;;;;;220613;1268;25360;-58
2022/04/25 17:40:14;;;;;;;3.20;1.70;;;20.40;52.00;;;;;;220940;1268;22711;-57
